createdAt,value
2022-08-07T00:00:43.170Z,40.82
2022-08-07T00:03:47.416Z,40.81
2022-08-07T00:06:51.763Z,40.93
2022-08-07T00:10:19.002Z,41.04
2022-08-07T00:13:25.854Z,41.06
2022-08-07T00:16:30.573Z,41.11
2022-08-07T00:20:00.979Z,41.25
2022-08-07T00:22:57.196Z,41.48
2022-08-07T00:26:13.405Z,41.48
2022-08-07T00:29:31.254Z,41.49
2022-08-07T00:32:35.270Z,41.52
2022-08-07T00:35:38.761Z,41.63
2022-08-07T00:38:41.827Z,41.75
2022-08-07T00:42:02.079Z,41.89
2022-08-07T00:45:16.135Z,42.09
2022-08-07T00:48:19.815Z,42.00
2022-08-07T00:51:56.969Z,42.19
2022-08-07T00:54:59.631Z,42.23
2022-08-07T00:58:08.172Z,42.24
2022-08-07T01:01:11.948Z,42.54
2022-08-07T01:04:24.791Z,42.58
2022-08-07T01:07:29.287Z,42.62
2022-08-07T01:10:32.700Z,42.64
2022-08-07T01:13:38.129Z,42.76
2022-08-07T01:16:42.929Z,42.82
2022-08-07T01:19:54.403Z,42.89
2022-08-07T01:23:00.789Z,42.90
2022-08-07T01:26:19.524Z,42.91
2022-08-07T01:29:28.014Z,42.98
2022-08-07T01:32:34.716Z,43.06
2022-08-07T01:35:53.398Z,43.06
2022-08-07T01:38:58.278Z,43.12
2022-08-07T01:42:36.766Z,42.98
2022-08-07T01:45:36.295Z,42.94
2022-08-07T01:48:48.269Z,42.99
2022-08-07T01:52:01.619Z,42.90
2022-08-07T01:55:11.285Z,42.88
2022-08-07T01:58:33.321Z,42.90
2022-08-07T02:01:59.634Z,42.91
2022-08-07T02:05:47.891Z,42.88
2022-08-07T02:08:42.782Z,42.93
2022-08-07T02:12:04.090Z,42.88
2022-08-07T02:15:14.495Z,42.74
2022-08-07T02:18:22.102Z,42.69
2022-08-07T02:21:56.191Z,42.50
2022-08-07T02:24:56.823Z,42.50
2022-08-07T02:28:01.767Z,42.41
2022-08-07T02:31:28.492Z,42.31
2022-08-07T02:34:37.698Z,42.33
2022-08-07T02:37:53.657Z,42.35
2022-08-07T02:40:58.408Z,42.26
2022-08-07T02:44:04.259Z,42.16
2022-08-07T02:47:08.764Z,42.09
2022-08-07T02:50:23.306Z,42.07
2022-08-07T02:53:39.731Z,42.23
2022-08-07T02:56:46.850Z,42.18
2022-08-07T02:59:54.906Z,42.29
2022-08-07T03:03:07.648Z,42.47
2022-08-07T03:06:26.201Z,42.79
2022-08-07T03:09:44.697Z,43.01
2022-08-07T03:13:20.606Z,43.24
2022-08-07T03:16:27.823Z,43.44
2022-08-07T03:19:36.936Z,43.68
2022-08-07T03:22:42.458Z,43.76
2022-08-07T03:25:58.223Z,43.99
2022-08-07T03:29:11.024Z,44.04
2022-08-07T03:32:17.087Z,44.03
2022-08-07T03:35:26.166Z,44.07
2022-08-07T03:43:13.551Z,44.34
2022-08-07T03:46:18.779Z,44.20
2022-08-07T03:49:22.199Z,44.15
2022-08-07T03:52:30.038Z,44.11
2022-08-07T03:56:33.204Z,43.98
2022-08-07T04:00:37.906Z,43.90
2022-08-07T04:03:55.071Z,43.80
2022-08-07T04:07:18.161Z,43.70
2022-08-07T04:10:26.203Z,43.58
2022-08-07T04:14:10.055Z,43.53
2022-08-07T04:16:58.589Z,43.64
2022-08-07T04:20:02.032Z,43.55
2022-08-07T04:23:06.233Z,43.56
2022-08-07T04:26:09.923Z,43.70
2022-08-07T04:29:14.846Z,44.00
2022-08-07T04:32:33.910Z,44.10
2022-08-07T04:35:39.002Z,44.26
2022-08-07T04:38:42.072Z,44.16
2022-08-07T04:41:50.422Z,44.32
2022-08-07T04:45:57.905Z,44.26
2022-08-07T04:49:28.307Z,44.74
2022-08-07T04:52:55.106Z,44.62
2022-08-07T04:58:12.545Z,44.46
2022-08-07T05:00:12.559Z,44.44
2022-08-07T05:04:00.282Z,44.54
2022-08-07T05:07:19.770Z,44.51
2022-08-07T05:10:33.664Z,44.75
2022-08-07T05:14:53.901Z,44.76
2022-08-07T05:17:14.198Z,44.97
2022-08-07T05:20:42.845Z,45.16
2022-08-07T05:23:50.361Z,45.21
2022-08-07T05:26:58.873Z,45.01
2022-08-07T05:30:03.641Z,44.96
2022-08-07T05:33:22.686Z,44.89
2022-08-07T05:36:30.379Z,44.75
2022-08-07T05:40:14.269Z,44.54
2022-08-07T05:43:02.018Z,44.62
2022-08-07T05:46:06.633Z,44.45
2022-08-07T05:49:12.957Z,44.30
2022-08-07T05:52:20.337Z,44.23
2022-08-07T05:55:25.421Z,44.22
2022-08-07T05:58:52.754Z,44.20
2022-08-07T06:01:59.461Z,44.11
2022-08-07T06:05:07.690Z,43.97
2022-08-07T06:13:16.622Z,43.87
2022-08-07T06:16:22.752Z,43.67
2022-08-07T06:19:57.799Z,43.64
2022-08-07T06:23:02.139Z,43.77
2022-08-07T06:26:21.722Z,43.86
2022-08-07T06:29:31.400Z,43.67
2022-08-07T06:32:35.555Z,43.59
2022-08-07T06:36:06.244Z,43.53
2022-08-07T06:40:16.869Z,43.79
2022-08-07T06:42:40.061Z,43.67
2022-08-07T06:45:44.860Z,43.38
2022-08-07T06:48:50.599Z,43.29
2022-08-07T06:51:59.568Z,43.16
2022-08-07T06:55:31.196Z,42.96
2022-08-07T07:00:12.928Z,43.07
2022-08-07T07:02:54.613Z,42.91
2022-08-07T07:06:03.730Z,42.71
2022-08-07T07:09:24.928Z,42.56
2022-08-07T07:12:41.856Z,42.48
2022-08-07T07:16:00.579Z,42.18
2022-08-07T07:19:19.007Z,41.95
2022-08-07T07:22:36.590Z,41.59
2022-08-07T07:26:34.226Z,41.66
2022-08-07T07:29:38.638Z,41.64
2022-08-07T07:32:40.645Z,41.75
2022-08-07T07:36:04.733Z,41.70
2022-08-07T07:39:11.753Z,41.67
2022-08-07T07:42:25.680Z,41.58
2022-08-07T07:46:37.201Z,41.74
2022-08-07T07:48:59.964Z,41.75
2022-08-07T07:52:17.492Z,41.59
2022-08-07T07:55:22.955Z,41.65
2022-08-07T07:58:40.775Z,41.40
2022-08-07T08:02:04.142Z,41.34
2022-08-07T08:05:17.057Z,41.23
2022-08-07T08:08:36.187Z,41.14
2022-08-07T08:11:59.632Z,41.20
2022-08-07T08:15:07.002Z,41.09
2022-08-07T08:18:17.777Z,41.03
2022-08-07T08:21:55.702Z,40.72
2022-08-07T08:25:42.594Z,40.65
2022-08-07T08:28:52.118Z,40.71
2022-08-07T08:32:17.225Z,40.59
2022-08-07T08:35:42.909Z,40.23
2022-08-07T08:38:51.729Z,40.49
2022-08-07T08:42:05.225Z,40.54
2022-08-07T08:45:59.197Z,40.42
2022-08-07T08:54:12.279Z,39.93
2022-08-07T08:57:30.341Z,39.96
2022-08-07T09:00:48.381Z,39.85
2022-08-07T09:05:07.030Z,39.75
2022-08-07T09:08:58.217Z,39.01
2022-08-07T09:12:31.223Z,38.70
2022-08-07T09:16:50.265Z,38.86
2022-08-07T09:20:01.868Z,38.55
2022-08-07T09:24:54.740Z,38.55
2022-08-07T09:28:00.268Z,38.64
2022-08-07T09:31:48.536Z,38.36
2022-08-07T09:35:04.573Z,37.96
2022-08-07T09:38:41.934Z,37.98
2022-08-07T09:42:04.079Z,38.30
2022-08-07T09:47:49.576Z,37.96
2022-08-07T09:50:02.027Z,37.91
2022-08-07T09:53:02.633Z,37.73
2022-08-07T09:56:34.042Z,37.66
2022-08-07T10:00:00.726Z,37.88
2022-08-07T10:04:06.452Z,37.81
2022-08-07T10:06:56.973Z,36.82
2022-08-07T10:10:28.276Z,36.53
2022-08-07T10:14:06.826Z,36.35
2022-08-07T10:18:01.572Z,36.69
2022-08-07T10:21:19.745Z,36.69
2022-08-07T10:24:54.530Z,36.12
2022-08-07T10:28:23.903Z,36.77
2022-08-07T10:31:31.548Z,36.85
2022-08-07T10:34:54.716Z,36.39
2022-08-07T10:38:36.108Z,35.96
2022-08-07T10:42:09.711Z,35.45
2022-08-07T10:45:44.377Z,35.37
2022-08-07T10:49:15.238Z,34.92
2022-08-07T10:52:21.077Z,35.44
2022-08-07T10:56:11.034Z,35.14
2022-08-07T10:59:37.286Z,34.35
2022-08-07T11:02:56.636Z,34.64
2022-08-07T11:06:18.362Z,34.74
2022-08-07T11:10:10.234Z,34.99
2022-08-07T11:14:45.030Z,35.38
2022-08-07T11:16:59.416Z,35.56
2022-08-07T11:20:16.839Z,35.69
2022-08-07T11:23:48.498Z,35.17
2022-08-07T11:27:03.981Z,34.77
2022-08-07T11:30:18.248Z,35.03
2022-08-07T11:33:59.297Z,34.61
2022-08-07T11:37:03.551Z,33.94
2022-08-07T11:40:36.732Z,34.50
2022-08-07T11:44:12.082Z,34.78
2022-08-07T11:47:55.979Z,34.51
2022-08-07T11:51:41.157Z,34.07
2022-08-07T11:55:13.004Z,34.71
2022-08-07T11:58:50.957Z,34.46
2022-08-07T12:02:20.708Z,33.67
2022-08-07T12:05:47.512Z,33.17
2022-08-07T12:09:05.622Z,32.03
2022-08-07T12:12:18.059Z,32.17
2022-08-07T12:15:46.688Z,33.04
2022-08-07T12:19:06.885Z,32.28
2022-08-07T12:22:58.475Z,32.45
2022-08-07T12:26:29.991Z,32.51
2022-08-07T12:29:51.773Z,32.09
2022-08-07T12:33:22.954Z,31.23
2022-08-07T12:36:35.167Z,31.49
2022-08-07T12:39:50.549Z,32.06
2022-08-07T12:43:00.207Z,31.38
2022-08-07T12:46:43.256Z,29.78
2022-08-07T12:50:04.969Z,29.69
2022-08-07T12:53:17.333Z,30.35
2022-08-07T12:56:37.011Z,29.59
2022-08-07T12:59:54.235Z,28.36
2022-08-07T13:03:59.151Z,28.94
2022-08-07T13:08:12.283Z,29.50
2022-08-07T13:10:59.776Z,29.15
2022-08-07T13:14:31.617Z,28.36
2022-08-07T13:17:49.915Z,28.34
2022-08-07T13:21:09.779Z,28.09
2022-08-07T13:24:25.893Z,27.10
2022-08-07T13:28:13.765Z,28.15
2022-08-07T13:31:21.219Z,28.52
2022-08-07T13:34:35.458Z,29.39
2022-08-07T13:37:58.961Z,29.07
2022-08-07T13:41:47.443Z,28.38
2022-08-07T13:45:20.586Z,28.52
2022-08-07T13:48:27.376Z,28.65
2022-08-07T13:52:22.943Z,28.49
2022-08-07T13:55:10.762Z,27.81
2022-08-07T13:58:35.481Z,26.38
2022-08-07T14:01:51.639Z,25.92
2022-08-07T14:05:12.274Z,26.81
2022-08-07T14:08:16.331Z,26.69
2022-08-07T14:11:23.546Z,26.36
2022-08-07T14:14:49.389Z,26.03
2022-08-07T14:18:15.964Z,25.26
2022-08-07T14:22:01.890Z,23.17
2022-08-07T14:25:07.182Z,23.79
2022-08-07T14:28:14.329Z,24.55
2022-08-07T14:31:19.320Z,25.33
2022-08-07T14:34:30.453Z,25.36
2022-08-07T14:37:39.861Z,25.95
2022-08-07T14:40:49.319Z,25.36
2022-08-07T14:43:58.780Z,23.43
2022-08-07T14:47:14.565Z,24.18
2022-08-07T14:50:22.813Z,24.01
2022-08-07T14:56:57.815Z,23.43
2022-08-07T15:00:08.456Z,23.13
2022-08-07T15:03:16.644Z,24.20
2022-08-07T15:06:30.147Z,24.46
2022-08-07T15:10:00.025Z,23.58
2022-08-07T15:13:16.051Z,23.84
2022-08-07T15:16:31.040Z,23.14
2022-08-07T15:26:55.845Z,23.86
2022-08-07T15:30:16.670Z,23.41
2022-08-07T15:33:21.342Z,23.22
2022-08-07T15:37:03.732Z,23.00
2022-08-07T15:40:11.528Z,22.97
2022-08-07T15:46:51.960Z,23.93
2022-08-07T15:53:48.599Z,23.75
2022-08-07T15:57:00.802Z,23.94
2022-08-07T16:00:06.356Z,23.67
2022-08-07T16:03:21.447Z,23.58
2022-08-07T16:06:53.293Z,23.26
2022-08-07T16:10:14.770Z,23.68
2022-08-07T16:14:00.000Z,24.13
2022-08-07T16:18:01.599Z,24.01
2022-08-07T16:21:44.145Z,23.76
2022-08-07T16:24:34.768Z,24.04
2022-08-07T16:27:58.508Z,24.22
2022-08-07T16:31:50.321Z,23.59
2022-08-07T16:34:56.191Z,23.15
2022-08-07T16:38:16.590Z,23.30
2022-08-07T16:42:00.375Z,23.57
2022-08-07T16:46:07.823Z,23.03
2022-08-07T16:50:26.872Z,24.11
2022-08-07T16:53:14.973Z,23.35
2022-08-07T16:57:01.189Z,23.45
2022-08-07T17:00:14.983Z,23.55
2022-08-07T17:03:57.767Z,23.77
2022-08-07T17:07:55.729Z,23.29
2022-08-07T17:10:56.829Z,23.27
2022-08-07T17:14:17.844Z,23.13
2022-08-07T17:17:45.988Z,23.74
2022-08-07T17:20:54.819Z,23.87
2022-08-07T17:24:23.810Z,23.88
2022-08-07T17:27:51.166Z,24.11
2022-08-07T17:31:16.465Z,24.30
2022-08-07T17:34:35.478Z,24.45
2022-08-07T17:38:09.307Z,24.38
2022-08-07T17:42:02.104Z,24.67
2022-08-07T17:45:20.114Z,24.77
2022-08-07T17:48:34.442Z,24.79
2022-08-07T17:51:59.601Z,24.75
2022-08-07T17:55:16.657Z,24.70
2022-08-07T17:59:08.998Z,24.79
2022-08-07T18:02:23.199Z,24.81
2022-08-07T18:06:03.327Z,24.74
2022-08-07T18:09:06.212Z,24.82
2022-08-07T18:12:37.730Z,25.09
2022-08-07T18:16:06.523Z,25.34
2022-08-07T18:21:05.946Z,25.36
2022-08-07T18:23:04.715Z,25.71
2022-08-07T18:26:15.138Z,25.96
2022-08-07T18:30:31.972Z,26.11
2022-08-07T18:34:37.649Z,26.38
2022-08-07T18:38:59.080Z,26.75
2022-08-07T18:41:46.360Z,26.82
2022-08-07T18:45:44.066Z,27.10
2022-08-07T18:50:04.970Z,27.06
2022-08-07T18:52:34.836Z,27.27
2022-08-07T18:55:56.140Z,27.48
2022-08-07T18:59:47.685Z,27.75
2022-08-07T19:02:59.739Z,27.89
2022-08-07T19:06:16.398Z,28.20
2022-08-07T19:09:57.568Z,28.29
2022-08-07T19:13:21.755Z,28.66
2022-08-07T19:17:00.765Z,28.73
2022-08-07T19:20:29.698Z,28.98
2022-08-07T19:23:59.021Z,29.15
2022-08-07T19:28:30.701Z,29.26
2022-08-07T19:31:03.675Z,29.31
2022-08-07T19:34:05.216Z,29.36
2022-08-07T19:37:17.610Z,29.59
2022-08-07T19:40:31.390Z,29.61
2022-08-07T19:43:52.002Z,29.61
2022-08-07T19:47:14.205Z,29.67
2022-08-07T19:50:41.227Z,29.65
2022-08-07T19:54:32.943Z,29.77
2022-08-07T19:58:02.925Z,29.99
2022-08-07T20:00:55.399Z,30.05
2022-08-07T20:04:01.136Z,30.16
2022-08-07T20:07:11.563Z,30.10
2022-08-07T20:10:37.931Z,30.17
2022-08-07T20:13:53.230Z,30.28
2022-08-07T20:17:00.917Z,30.29
2022-08-07T20:20:09.110Z,30.37
2022-08-07T20:23:40.905Z,30.41
2022-08-07T20:26:54.792Z,30.76
2022-08-07T20:30:00.985Z,30.78
2022-08-07T20:33:09.090Z,30.92
2022-08-07T20:36:30.379Z,30.85
2022-08-07T20:40:02.756Z,31.04
2022-08-07T20:43:01.432Z,31.26
2022-08-07T20:46:26.827Z,31.21
2022-08-07T20:49:59.135Z,31.46
2022-08-07T20:52:57.419Z,31.50
2022-08-07T20:56:03.015Z,31.66
2022-08-07T20:59:06.739Z,31.73
2022-08-07T21:02:53.959Z,31.70
2022-08-07T21:06:21.564Z,31.87
2022-08-07T21:09:51.944Z,31.80
2022-08-07T21:12:59.840Z,31.93
2022-08-07T21:16:05.425Z,31.99
2022-08-07T21:19:14.010Z,31.99
2022-08-07T21:22:19.102Z,32.13
2022-08-07T21:26:01.395Z,32.23
2022-08-07T21:29:18.694Z,32.23
2022-08-07T21:32:46.970Z,32.31
2022-08-07T21:36:31.861Z,32.43
2022-08-07T21:39:51.778Z,32.53
2022-08-07T21:43:05.101Z,32.62
2022-08-07T21:46:25.106Z,32.65
2022-08-07T21:50:02.771Z,32.76
2022-08-07T21:53:13.372Z,32.94
2022-08-07T21:56:36.483Z,32.98
2022-08-07T22:00:04.072Z,33.02
2022-08-07T22:03:30.829Z,33.08
2022-08-07T22:06:50.483Z,33.18
2022-08-07T22:09:59.822Z,33.34
2022-08-07T22:13:09.579Z,33.42
2022-08-07T22:16:43.410Z,33.29
2022-08-07T22:19:59.397Z,33.37
2022-08-07T22:23:25.509Z,33.41
2022-08-07T22:26:44.679Z,33.40
2022-08-07T22:30:03.880Z,33.54
2022-08-07T22:33:17.953Z,33.59
2022-08-07T22:37:09.339Z,33.57
2022-08-07T22:40:25.350Z,33.72
2022-08-07T22:43:39.679Z,33.80
2022-08-07T22:47:03.860Z,33.93
2022-08-07T22:50:40.783Z,33.88
2022-08-07T22:54:07.559Z,33.89
2022-08-07T22:57:25.870Z,33.98
2022-08-07T23:00:43.735Z,33.92
2022-08-07T23:04:05.023Z,33.97
2022-08-07T23:07:41.393Z,34.03
2022-08-07T23:10:57.462Z,34.15
2022-08-07T23:14:33.659Z,34.22
2022-08-07T23:17:50.545Z,34.35
2022-08-07T23:21:00.273Z,34.28
2022-08-07T23:24:19.206Z,34.34
2022-08-07T23:28:21.575Z,34.34
2022-08-07T23:32:49.272Z,34.44
2022-08-07T23:35:24.194Z,34.48
2022-08-07T23:38:45.677Z,34.56
2022-08-07T23:42:26.125Z,34.66
2022-08-07T23:46:02.900Z,34.92
2022-08-07T23:49:25.727Z,34.96
2022-08-07T23:52:59.867Z,35.08
2022-08-07T23:56:31.397Z,35.24
